Time;durP1;ratioP1;P1;durP2;ratioP2;P2;SDS_P1;SDS_P2;PMS_P1;PMS_P2;Temp;Humidity;BMP_temperature;BMP_pressure;BME280_temperature;BME280_humidity;BME280_pressure;Samples;Min_cycle;Max_cycle;Signal;HPM_P1;HPM_P2
2023/02/27 00:02:22;;;;;;;2.30;2.20;;;;;;;;;;5065289;28;20261;-69
2023/02/27 00:04:50;;;;;;;2.03;1.83;;;;;;;;;;5064056;28;20280;-69
2023/02/27 00:07:18;;;;;;;2.33;2.22;;;;;;;;;;5064147;28;20248;-69
2023/02/27 00:09:46;;;;;;;1.80;1.70;;;;;;;;;;5064154;28;20255;-69
2023/02/27 00:12:14;;;;;;;4.10;1.83;;;;;;;;;;5063754;28;20292;-69
2023/02/27 00:14:43;;;;;;;2.60;1.70;;;;;;;;;;5064085;28;20243;-68
2023/02/27 00:17:11;;;;;;;1.90;1.80;;;;;;;;;;5064955;28;20671;-69
2023/02/27 00:19:40;;;;;;;1.70;1.60;;;;;;;;;;5064737;28;20272;-69
2023/02/27 00:22:09;;;;;;;3.58;2.13;;;;;;;;;;5062810;28;20280;-69
2023/02/27 00:24:37;;;;;;;2.55;2.35;;;;;;;;;;5067681;28;20691;-69
2023/02/27 00:27:06;;;;;;;3.80;2.80;;;;;;;;;;5066842;28;20283;-69
2023/02/27 00:29:34;;;;;;;1.70;1.60;;;;;;;;;;5067044;28;20304;-69
2023/02/27 00:32:02;;;;;;;2.30;2.10;;;;;;;;;;5063037;28;20264;-69
2023/02/27 00:34:30;;;;;;;1.80;1.70;;;;;;;;;;5065861;28;20653;-69
2023/02/27 00:37:00;;;;;;;4.13;1.70;;;;;;;;;;5064872;28;20276;-69
2023/02/27 00:39:28;;;;;;;5.28;1.60;;;;;;;;;;5065160;28;20312;-68
2023/02/27 00:41:56;;;;;;;2.08;1.95;;;;;;;;;;5066120;28;20287;-68
2023/02/27 00:44:24;;;;;;;1.67;1.40;;;;;;;;;;5066750;28;20300;-69
2023/02/27 00:46:53;;;;;;;3.72;1.70;;;;;;;;;;5066603;28;20280;-69
2023/02/27 00:49:21;;;;;;;3.08;2.00;;;;;;;;;;5065499;28;20280;-69
2023/02/27 00:51:49;;;;;;;3.13;2.20;;;;;;;;;;5065012;28;20257;-69
2023/02/27 00:54:19;;;;;;;3.08;1.83;;;;;;;;;;5065015;28;20256;-69
2023/02/27 00:56:47;;;;;;;3.40;1.90;;;;;;;;;;5064597;28;20727;-69
2023/02/27 00:59:17;;;;;;;3.45;1.98;;;;;;;;;;5065922;28;20224;-69
2023/02/27 01:01:46;;;;;;;4.00;1.58;;;;;;;;;;5064953;28;20292;-69
2023/02/27 01:04:14;;;;;;;1.60;1.50;;;;;;;;;;5065852;28;20279;-69
2023/02/27 01:06:43;;;;;;;2.35;2.10;;;;;;;;;;5066265;28;20673;-69
2023/02/27 01:09:11;;;;;;;3.15;2.85;;;;;;;;;;5065658;28;20265;-68
2023/02/27 01:11:40;;;;;;;5.22;1.92;;;;;;;;;;5065323;28;20265;-69
2023/02/27 01:14:09;;;;;;;1.55;1.45;;;;;;;;;;5066156;28;20260;-69
2023/02/27 01:16:37;;;;;;;1.92;1.73;;;;;;;;;;5066927;28;20248;-70
2023/02/27 01:19:05;;;;;;;2.78;1.80;;;;;;;;;;5068199;28;20227;-69
2023/02/27 01:21:33;;;;;;;1.92;1.75;;;;;;;;;;5067819;28;20276;-69
2023/02/27 01:24:01;;;;;;;2.40;2.20;;;;;;;;;;5064659;28;20278;-69
2023/02/27 01:26:30;;;;;;;3.20;1.88;;;;;;;;;;5050193;28;20331;-69
2023/02/27 01:28:59;;;;;;;3.92;1.70;;;;;;;;;;5066673;28;20307;-69
2023/02/27 01:31:27;;;;;;;1.60;1.50;;;;;;;;;;5066187;28;20284;-68
2023/02/27 01:33:56;;;;;;;9.20;2.45;;;;;;;;;;5067804;28;20801;-67
2023/02/27 01:36:24;;;;;;;3.05;2.13;;;;;;;;;;5068075;28;20265;-67
2023/02/27 01:38:52;;;;;;;3.45;2.30;;;;;;;;;;5068047;28;20250;-67
2023/02/27 01:41:21;;;;;;;2.83;2.55;;;;;;;;;;5069622;28;20274;-67
2023/02/27 01:43:56;;;;;;;1.92;1.63;;;;;;;;;;5068310;28;20232;-68
2023/02/27 01:46:25;;;;;;;3.30;2.22;;;;;;;;;;5068252;28;20267;-68
2023/02/27 01:48:58;;;;;;;1.92;1.70;;;;;;;;;;5068480;28;20232;-68
2023/02/27 01:51:27;;;;;;;3.63;1.83;;;;;;;;;;5068409;28;20224;-68
2023/02/27 01:53:56;;;;;;;1.90;1.80;;;;;;;;;;5067536;28;20621;-68
2023/02/27 01:56:24;;;;;;;2.35;2.10;;;;;;;;;;5069956;28;20228;-68
2023/02/27 01:58:54;;;;;;;2.40;2.10;;;;;;;;;;5051502;28;20228;-68
2023/02/27 02:01:23;;;;;;;6.40;2.08;;;;;;;;;;5068876;28;20279;-67
2023/02/27 02:03:55;;;;;;;4.45;2.15;;;;;;;;;;5068172;28;20252;-67
2023/02/27 02:06:24;;;;;;;6.03;2.17;;;;;;;;;;5067204;28;20249;-67
2023/02/27 02:08:53;;;;;;;2.55;1.73;;;;;;;;;;5068070;28;20228;-67
2023/02/27 02:11:22;;;;;;;7.80;1.90;;;;;;;;;;5067690;28;20231;-67
2023/02/27 02:13:53;;;;;;;1.55;1.45;;;;;;;;;;5067562;28;20272;-68
2023/02/27 02:16:32;;;;;;;4.15;1.90;;;;;;;;;;5068276;28;20223;-68
2023/02/27 02:19:07;;;;;;;4.40;1.75;;;;;;;;;;5067020;28;20220;-69
2023/02/27 02:21:48;;;;;;;7.57;2.70;;;;;;;;;;5066651;28;20272;-68
2023/02/27 02:24:35;;;;;;;2.85;1.95;;;;;;;;;;5066365;28;20276;-68
2023/02/27 02:27:10;;;;;;;2.65;2.00;;;;;;;;;;5067062;28;20671;-68
2023/02/27 02:30:01;;;;;;;8.63;2.00;;;;;;;;;;5066491;28;20541;-68
2023/02/27 02:32:47;;;;;;;3.75;2.75;;;;;;;;;;5044991;28;20277;-69
2023/02/27 02:35:30;;;;;;;3.25;1.83;;;;;;;;;;5064271;28;20734;-68
2023/02/27 02:38:16;;;;;;;7.88;2.30;;;;;;;;;;5063720;28;20415;-68
2023/02/27 02:40:49;;;;;;;4.00;2.50;;;;;;;;;;5057623;28;20272;-68
2023/02/27 02:43:20;;;;;;;4.88;2.63;;;;;;;;;;5064742;28;20268;-68
2023/02/27 02:45:55;;;;;;;5.85;2.72;;;;;;;;;;5059321;28;20651;-68
2023/02/27 02:48:28;;;;;;;3.30;2.58;;;;;;;;;;5060360;28;20252;-69
2023/02/27 02:51:00;;;;;;;4.35;2.05;;;;;;;;;;5059933;28;20817;-68
2023/02/27 02:53:31;;;;;;;4.68;2.22;;;;;;;;;;5059644;28;20253;-68
2023/02/27 02:56:05;;;;;;;5.47;2.78;;;;;;;;;;5059614;28;20285;-68
2023/02/27 02:58:36;;;;;;;5.35;2.60;;;;;;;;;;5060045;28;20276;-68
2023/02/27 03:01:08;;;;;;;5.78;2.45;;;;;;;;;;5059326;28;20283;-68
2023/02/27 03:03:39;;;;;;;5.22;2.13;;;;;;;;;;5041694;28;20298;-68
2023/02/27 03:06:10;;;;;;;3.72;2.25;;;;;;;;;;5055883;28;20193;-69
2023/02/27 03:08:41;;;;;;;3.33;2.70;;;;;;;;;;5058710;28;20249;-68
2023/02/27 03:11:10;;;;;;;3.28;3.00;;;;;;;;;;5060456;28;20272;-68
2023/02/27 03:13:41;;;;;;;10.18;3.65;;;;;;;;;;5059769;28;20299;-68
2023/02/27 03:16:13;;;;;;;3.08;2.00;;;;;;;;;;5059088;28;20589;-68
2023/02/27 03:18:44;;;;;;;6.43;2.80;;;;;;;;;;5057801;28;20275;-68
2023/02/27 03:21:14;;;;;;;3.67;2.22;;;;;;;;;;5060117;28;20308;-69
2023/02/27 03:23:43;;;;;;;3.85;2.58;;;;;;;;;;5056535;28;20687;-68
2023/02/27 03:26:16;;;;;;;6.32;3.05;;;;;;;;;;5058255;28;20244;-68
2023/02/27 03:32:17;;;;;;;4.15;3.70;;;;;;;;;;5048164;28;20256;-68
2023/02/27 03:34:46;;;;;;;4.30;3.13;;;;;;;;;;5054756;28;20279;-68
2023/02/27 03:37:20;;;;;;;6.78;3.17;;;;;;;;;;5055362;28;20217;-68
2023/02/27 03:39:49;;;;;;;4.00;2.83;;;;;;;;;;5054115;28;20283;-68
2023/02/27 03:42:25;;;;;;;5.47;2.80;;;;;;;;;;5053929;28;20219;-68
2023/02/27 03:45:14;;;;;;;5.28;2.95;;;;;;;;;;5053620;28;20188;-68
2023/02/27 03:47:42;;;;;;;5.85;3.33;;;;;;;;;;5053903;28;20265;-68
2023/02/27 03:50:12;;;;;;;5.45;2.85;;;;;;;;;;5053344;28;20214;-68
2023/02/27 03:52:40;;;;;;;4.95;2.60;;;;;;;;;;5053422;28;20185;-68
2023/02/27 03:55:11;;;;;;;2.50;2.33;;;;;;;;;;5053751;28;20333;-68
2023/02/27 03:57:42;;;;;;;7.07;2.70;;;;;;;;;;5056383;28;20215;-68
2023/02/27 04:00:12;;;;;;;5.20;3.22;;;;;;;;;;5058845;28;20825;-68
2023/02/27 04:02:44;;;;;;;2.88;2.38;;;;;;;;;;5057220;28;20209;-68
2023/02/27 04:05:15;;;;;;;2.53;2.25;;;;;;;;;;5060852;28;20272;-68
2023/02/27 04:08:13;;;;;;;2.83;2.25;;;;;;;;;;5060889;28;20279;-68
2023/02/27 04:10:55;;;;;;;2.67;2.30;;;;;;;;;;5038859;28;20268;-68
2023/02/27 04:13:44;;;;;;;3.78;2.45;;;;;;;;;;5058238;28;20279;-68
2023/02/27 04:16:24;;;;;;;3.83;3.33;;;;;;;;;;5055705;28;20283;-68
2023/02/27 04:18:56;;;;;;;6.00;3.25;;;;;;;;;;5058276;28;20279;-68
2023/02/27 04:21:29;;;;;;;8.02;3.08;;;;;;;;;;5059242;28;20300;-68
2023/02/27 04:24:01;;;;;;;3.15;2.85;;;;;;;;;;5058067;28;20600;-68
2023/02/27 04:26:31;;;;;;;6.32;2.72;;;;;;;;;;5059394;28;20280;-68
2023/02/27 04:29:02;;;;;;;6.75;3.75;;;;;;;;;;5060568;28;20291;-68
2023/02/27 04:31:33;;;;;;;3.20;2.90;;;;;;;;;;5058891;28;20628;-68
2023/02/27 04:34:03;;;;;;;10.00;4.10;;;;;;;;;;5060520;28;20278;-68
2023/02/27 04:36:35;;;;;;;4.75;3.22;;;;;;;;;;5060298;28;20260;-68
2023/02/27 04:39:05;;;;;;;4.13;3.40;;;;;;;;;;5060696;28;20279;-68
2023/02/27 04:41:35;;;;;;;4.93;3.47;;;;;;;;;;5061002;28;20276;-68
2023/02/27 04:44:19;;;;;;;7.57;3.10;;;;;;;;;;5060082;28;20256;-68
2023/02/27 04:46:49;;;;;;;14.88;4.15;;;;;;;;;;5060095;28;20779;-68
2023/02/27 04:49:20;;;;;;;3.60;2.72;;;;;;;;;;5060568;28;20264;-68
2023/02/27 04:51:51;;;;;;;3.10;2.42;;;;;;;;;;5059846;28;20667;-68
2023/02/27 04:54:23;;;;;;;4.03;3.08;;;;;;;;;;5063072;28;20275;-68
2023/02/27 04:56:53;;;;;;;4.80;3.10;;;;;;;;;;5062995;28;20695;-68
2023/02/27 04:59:24;;;;;;;3.20;2.55;;;;;;;;;;5064662;28;20280;-68
2023/02/27 05:01:56;;;;;;;5.10;3.10;;;;;;;;;;5063035;28;20299;-68
2023/02/27 05:04:26;;;;;;;3.17;2.65;;;;;;;;;;5063591;28;20330;-68
2023/02/27 05:06:55;;;;;;;5.35;1.83;;;;;;;;;;5062825;28;20254;-68
2023/02/27 05:09:27;;;;;;;6.20;2.67;;;;;;;;;;5064154;28;20287;-69
2023/02/27 05:11:57;;;;;;;2.28;2.08;;;;;;;;;;5065855;28;20260;-68
2023/02/27 05:14:29;;;;;;;5.20;2.55;;;;;;;;;;5065395;28;20624;-68
2023/02/27 05:17:03;;;;;;;3.55;2.15;;;;;;;;;;5066082;28;20293;-68
2023/02/27 05:19:32;;;;;;;3.88;2.65;;;;;;;;;;5066254;28;20272;-68
2023/02/27 05:22:04;;;;;;;6.53;2.83;;;;;;;;;;5065329;28;20358;-68
2023/02/27 05:24:36;;;;;;;2.53;2.33;;;;;;;;;;5066787;28;20280;-68
2023/02/27 05:27:10;;;;;;;2.72;2.50;;;;;;;;;;5066633;28;20284;-68
2023/02/27 05:29:43;;;;;;;2.05;1.60;;;;;;;;;;5066872;28;20257;-68
2023/02/27 05:32:17;;;;;;;7.20;3.17;;;;;;;;;;5066410;28;20269;-68
2023/02/27 05:34:49;;;;;;;4.75;2.45;;;;;;;;;;5068375;28;20626;-68
2023/02/27 05:37:19;;;;;;;4.70;1.90;;;;;;;;;;5068511;28;20275;-70
2023/02/27 05:39:48;;;;;;;2.17;1.98;;;;;;;;;;5069233;28;20610;-68
2023/02/27 05:42:19;;;;;;;2.88;2.10;;;;;;;;;;5069666;28;20252;-68
2023/02/27 05:44:50;;;;;;;7.10;2.70;;;;;;;;;;5070342;28;20229;-68
2023/02/27 05:47:22;;;;;;;5.20;2.20;;;;;;;;;;5070203;28;20240;-68
2023/02/27 05:49:53;;;;;;;5.32;2.35;;;;;;;;;;5070894;28;20237;-68
2023/02/27 05:52:24;;;;;;;3.17;2.83;;;;;;;;;;5068883;28;20236;-68
2023/02/27 05:54:54;;;;;;;4.15;2.05;;;;;;;;;;5068514;28;20220;-68
2023/02/27 05:57:24;;;;;;;2.08;1.85;;;;;;;;;;5067818;28;20633;-68
2023/02/27 05:59:59;;;;;;;3.75;2.00;;;;;;;;;;5067934;28;20221;-68
2023/02/27 06:02:28;;;;;;;3.58;2.17;;;;;;;;;;5065514;28;20260;-68
2023/02/27 06:04:57;;;;;;;5.72;2.25;;;;;;;;;;5050210;28;20276;-68
2023/02/27 06:07:25;;;;;;;3.33;2.40;;;;;;;;;;5067003;28;20643;-69
2023/02/27 06:09:53;;;;;;;2.63;2.10;;;;;;;;;;5066038;28;20288;-70
2023/02/27 06:12:22;;;;;;;2.47;2.22;;;;;;;;;;5064664;28;20241;-69
2023/02/27 06:14:50;;;;;;;7.57;3.78;;;;;;;;;;5066626;28;20200;-69
2023/02/27 06:17:18;;;;;;;4.20;2.22;;;;;;;;;;5065481;28;20257;-69
2023/02/27 06:19:48;;;;;;;5.00;2.15;;;;;;;;;;5064531;28;20280;-68
2023/02/27 06:22:16;;;;;;;3.83;2.08;;;;;;;;;;5055813;28;20292;-69
2023/02/27 06:24:44;;;;;;;6.20;2.13;;;;;;;;;;5057244;28;20275;-69
2023/02/27 06:27:12;;;;;;;1.95;1.67;;;;;;;;;;5059910;28;20256;-68
2023/02/27 06:29:41;;;;;;;10.23;2.80;;;;;;;;;;5060758;28;20731;-68
2023/02/27 06:32:09;;;;;;;5.13;2.78;;;;;;;;;;5061056;28;20263;-68
2023/02/27 06:34:37;;;;;;;2.85;2.03;;;;;;;;;;5062487;28;20260;-68
2023/02/27 06:37:07;;;;;;;3.72;2.67;;;;;;;;;;5061174;28;20330;-68
2023/02/27 06:39:35;;;;;;;4.68;2.30;;;;;;;;;;5060051;28;20275;-69
2023/02/27 06:42:04;;;;;;;2.22;1.95;;;;;;;;;;5060995;28;20299;-68
2023/02/27 06:44:32;;;;;;;2.70;2.38;;;;;;;;;;5059738;28;20804;-69
2023/02/27 06:47:00;;;;;;;6.90;3.65;;;;;;;;;;5056654;28;20635;-69
2023/02/27 06:49:28;;;;;;;3.35;2.58;;;;;;;;;;5059854;28;20283;-68
2023/02/27 06:51:56;;;;;;;5.03;1.88;;;;;;;;;;5058997;28;20327;-68
2023/02/27 06:54:26;;;;;;;6.13;2.40;;;;;;;;;;5060462;28;20283;-68
2023/02/27 06:56:54;;;;;;;4.43;2.50;;;;;;;;;;5058933;28;20367;-67
2023/02/27 06:59:22;;;;;;;3.10;2.25;;;;;;;;;;5057803;28;20256;-67
2023/02/27 07:01:50;;;;;;;2.40;2.08;;;;;;;;;;5055837;28;20268;-66
2023/02/27 07:04:18;;;;;;;2.35;2.00;;;;;;;;;;5058894;28;20256;-67
2023/02/27 07:06:47;;;;;;;2.97;1.85;;;;;;;;;;5060936;28;20295;-66
2023/02/27 07:09:15;;;;;;;2.00;1.70;;;;;;;;;;5063831;28;20276;-67
2023/02/27 07:11:45;;;;;;;4.63;3.00;;;;;;;;;;5064778;28;20283;-67
2023/02/27 07:14:15;;;;;;;2.50;1.70;;;;;;;;;;5065598;28;20279;-68
2023/02/27 07:16:43;;;;;;;2.28;1.85;;;;;;;;;;5062629;28;20272;-67
2023/02/27 07:19:11;;;;;;;3.15;1.88;;;;;;;;;;5060085;28;20280;-68
2023/02/27 07:21:39;;;;;;;2.05;1.95;;;;;;;;;;5063504;28;20256;-69
2023/02/27 07:24:08;;;;;;;3.15;1.90;;;;;;;;;;5056376;28;20276;-68
2023/02/27 07:26:36;;;;;;;4.82;1.80;;;;;;;;;;5055842;28;20196;-68
2023/02/27 07:29:06;;;;;;;2.60;2.05;;;;;;;;;;5052983;28;20205;-68
2023/02/27 07:31:34;;;;;;;3.15;1.63;;;;;;;;;;5053163;28;20585;-70
2023/02/27 07:34:02;;;;;;;1.98;1.80;;;;;;;;;;5054970;28;20280;-70
2023/02/27 07:36:31;;;;;;;2.30;1.90;;;;;;;;;;5054841;28;20208;-69
2023/02/27 07:38:59;;;;;;;3.38;2.05;;;;;;;;;;5049121;28;20195;-69
2023/02/27 07:41:27;;;;;;;5.13;2.42;;;;;;;;;;5053312;28;20205;-68
2023/02/27 07:43:55;;;;;;;2.72;2.00;;;;;;;;;;5053544;28;20576;-69
2023/02/27 07:46:26;;;;;;;2.00;1.90;;;;;;;;;;5052644;28;20204;-69
2023/02/27 07:48:54;;;;;;;4.68;2.35;;;;;;;;;;5053105;28;20185;-69
2023/02/27 07:51:22;;;;;;;4.75;2.50;;;;;;;;;;5054232;28;20256;-68
2023/02/27 07:53:50;;;;;;;2.28;2.00;;;;;;;;;;5057598;28;20248;-68
2023/02/27 07:56:19;;;;;;;2.83;2.13;;;;;;;;;;5060951;28;20256;-68
2023/02/27 07:58:47;;;;;;;3.15;2.38;;;;;;;;;;5058045;28;20253;-68
2023/02/27 08:01:15;;;;;;;2.33;2.13;;;;;;;;;;5058851;28;20284;-68
2023/02/27 08:03:44;;;;;;;2.60;2.40;;;;;;;;;;5059633;28;20284;-68
2023/02/27 08:06:13;;;;;;;3.25;2.50;;;;;;;;;;5059977;28;20284;-68
2023/02/27 08:08:41;;;;;;;3.60;2.97;;;;;;;;;;5061007;28;20273;-68
2023/02/27 08:11:10;;;;;;;3.03;2.75;;;;;;;;;;5057276;28;20522;-69
2023/02/27 08:13:38;;;;;;;2.38;2.22;;;;;;;;;;5056074;28;20754;-69
2023/02/27 08:16:06;;;;;;;2.80;2.50;;;;;;;;;;5057016;28;20284;-69
2023/02/27 08:18:35;;;;;;;2.83;2.20;;;;;;;;;;5056915;28;20283;-68
2023/02/27 08:21:05;;;;;;;2.58;2.38;;;;;;;;;;5056813;28;20193;-68
2023/02/27 08:23:34;;;;;;;3.22;2.20;;;;;;;;;;5056892;28;20323;-69
2023/02/27 08:26:02;;;;;;;2.83;2.47;;;;;;;;;;5057562;28;20276;-69
2023/02/27 08:28:31;;;;;;;3.55;2.53;;;;;;;;;;5054198;28;20288;-68
2023/02/27 08:30:59;;;;;;;8.48;2.85;;;;;;;;;;5053961;28;20291;-69
2023/02/27 08:33:27;;;;;;;7.00;2.50;;;;;;;;;;5053889;28;20268;-69
2023/02/27 08:35:55;;;;;;;2.80;2.60;;;;;;;;;;5054378;28;20566;-69
2023/02/27 08:38:25;;;;;;;4.00;3.38;;;;;;;;;;5060039;28;20395;-67
2023/02/27 08:40:53;;;;;;;6.65;3.22;;;;;;;;;;5062698;28;20279;-67
2023/02/27 08:43:22;;;;;;;2.70;2.40;;;;;;;;;;5061832;28;20959;-69
2023/02/27 08:45:51;;;;;;;6.72;2.63;;;;;;;;;;5060672;28;20708;-68
2023/02/27 08:48:19;;;;;;;3.50;3.22;;;;;;;;;;5061895;28;20288;-68
2023/02/27 08:50:47;;;;;;;2.75;2.65;;;;;;;;;;5060426;28;20288;-69
2023/02/27 08:53:15;;;;;;;5.07;3.35;;;;;;;;;;5058653;28;20288;-69
2023/02/27 08:55:45;;;;;;;7.43;2.92;;;;;;;;;;5056554;28;20200;-69
2023/02/27 08:58:13;;;;;;;3.10;2.90;;;;;;;;;;5057249;28;20197;-69
2023/02/27 09:00:41;;;;;;;3.10;2.83;;;;;;;;;;5059147;28;20711;-69
2023/02/27 09:03:10;;;;;;;3.30;3.10;;;;;;;;;;5057277;28;20227;-69
2023/02/27 09:05:38;;;;;;;3.70;3.13;;;;;;;;;;5057099;28;20207;-69
2023/02/27 09:08:07;;;;;;;2.88;2.75;;;;;;;;;;5058081;28;20281;-69
2023/02/27 09:10:35;;;;;;;4.10;3.10;;;;;;;;;;5051520;28;20211;-68
2023/02/27 09:13:04;;;;;;;3.70;3.50;;;;;;;;;;5060104;28;20219;-68
2023/02/27 09:15:34;;;;;;;3.35;3.10;;;;;;;;;;5058671;28;20283;-68
2023/02/27 09:18:05;;;;;;;3.60;3.30;;;;;;;;;;5058359;28;20840;-66
2023/02/27 09:20:34;;;;;;;3.30;3.10;;;;;;;;;;5059207;28;20589;-67
2023/02/27 09:23:03;;;;;;;3.28;3.17;;;;;;;;;;5056480;28;20346;-67
2023/02/27 09:25:31;;;;;;;3.55;3.35;;;;;;;;;;5056531;28;20253;-67
2023/02/27 09:28:00;;;;;;;3.70;3.50;;;;;;;;;;5054830;28;20682;-67
2023/02/27 09:30:29;;;;;;;3.70;3.40;;;;;;;;;;5059217;28;20323;-68
2023/02/27 09:32:57;;;;;;;3.80;3.60;;;;;;;;;;5060665;28;20283;-68
2023/02/27 09:35:25;;;;;;;3.40;3.20;;;;;;;;;;5059246;28;20347;-68
2023/02/27 09:37:54;;;;;;;4.50;4.20;;;;;;;;;;5058928;28;20208;-69
2023/02/27 09:40:24;;;;;;;4.40;4.10;;;;;;;;;;5056347;28;20618;-69
2023/02/27 09:42:55;;;;;;;6.13;4.20;;;;;;;;;;5054377;28;20197;-69
2023/02/27 09:45:25;;;;;;;3.50;3.25;;;;;;;;;;5037866;28;20239;-68
2023/02/27 09:47:56;;;;;;;3.90;3.70;;;;;;;;;;5057390;28;20222;-68
2023/02/27 09:50:32;;;;;;;3.83;3.67;;;;;;;;;;5055740;28;20583;-68
2023/02/27 09:53:00;;;;;;;11.23;4.18;;;;;;;;;;5057512;28;20283;-69
2023/02/27 09:55:32;;;;;;;3.80;3.70;;;;;;;;;;5057495;28;20674;-68
2023/02/27 09:58:06;;;;;;;3.97;3.78;;;;;;;;;;5055719;28;20185;-69
2023/02/27 10:00:42;;;;;;;3.90;3.70;;;;;;;;;;5057116;28;20256;-69
2023/02/27 10:03:19;;;;;;;4.10;4.00;;;;;;;;;;5055429;28;20211;-69
2023/02/27 10:05:49;;;;;;;4.20;3.90;;;;;;;;;;5055914;28;20257;-69
2023/02/27 10:08:19;;;;;;;4.05;3.75;;;;;;;;;;5055500;28;20551;-69
2023/02/27 10:10:53;;;;;;;4.30;3.90;;;;;;;;;;5055434;28;20207;-69
2023/02/27 10:13:30;;;;;;;8.40;4.13;;;;;;;;;;5054929;28;20196;-70
2023/02/27 10:15:59;;;;;;;4.30;4.10;;;;;;;;;;5053733;28;20330;-69
2023/02/27 10:18:30;;;;;;;4.15;4.03;;;;;;;;;;5056554;28;20200;-69
2023/02/27 10:21:01;;;;;;;3.80;3.60;;;;;;;;;;5058743;28;20620;-69
2023/02/27 10:23:32;;;;;;;4.30;4.20;;;;;;;;;;5057954;28;20303;-69
2023/02/27 10:26:01;;;;;;;4.30;4.10;;;;;;;;;;5055161;28;20189;-68
2023/02/27 10:28:30;;;;;;;4.43;4.32;;;;;;;;;;5053874;28;20566;-69
2023/02/27 10:30:59;;;;;;;5.28;4.30;;;;;;;;;;5054529;28;20228;-69
2023/02/27 10:33:32;;;;;;;4.80;4.70;;;;;;;;;;5057596;28;20211;-69
2023/02/27 10:36:01;;;;;;;9.73;4.25;;;;;;;;;;5056350;28;20256;-69
2023/02/27 10:38:32;;;;;;;4.43;4.25;;;;;;;;;;5058185;28;20293;-69
2023/02/27 10:41:02;;;;;;;4.28;4.10;;;;;;;;;;5057626;28;20271;-68
2023/02/27 10:43:30;;;;;;;4.05;3.95;;;;;;;;;;5058307;28;20207;-69
2023/02/27 10:46:01;;;;;;;4.25;4.07;;;;;;;;;;5058447;28;20327;-69
2023/02/27 10:48:32;;;;;;;3.50;3.40;;;;;;;;;;5057647;28;20249;-70
2023/02/27 10:51:15;;;;;;;4.00;3.90;;;;;;;;;;5057894;28;20263;-71
2023/02/27 10:53:43;;;;;;;4.07;3.85;;;;;;;;;;5060395;28;20834;-70
2023/02/27 10:56:15;;;;;;;4.30;4.20;;;;;;;;;;5058001;28;20291;-69
2023/02/27 10:58:44;;;;;;;4.10;3.97;;;;;;;;;;5053079;28;20197;-70
2023/02/27 11:01:13;;;;;;;4.25;4.05;;;;;;;;;;5055421;28;20204;-70
2023/02/27 11:03:44;;;;;;;6.68;4.80;;;;;;;;;;5056437;28;20202;-68
2023/02/27 11:06:14;;;;;;;4.40;4.20;;;;;;;;;;5057578;28;20276;-69
2023/02/27 11:08:42;;;;;;;4.30;4.20;;;;;;;;;;5058741;28;20275;-69
2023/02/27 11:11:11;;;;;;;4.00;3.90;;;;;;;;;;5059156;28;20287;-70
2023/02/27 11:13:40;;;;;;;4.57;4.47;;;;;;;;;;5059294;28;20351;-70
2023/02/27 11:16:13;;;;;;;6.82;5.07;;;;;;;;;;5057497;28;20279;-70
2023/02/27 11:18:43;;;;;;;4.43;4.30;;;;;;;;;;5055605;28;20193;-70
2023/02/27 11:21:13;;;;;;;4.47;4.28;;;;;;;;;;5056794;28;20193;-71
2023/02/27 11:23:50;;;;;;;4.93;4.43;;;;;;;;;;5057363;28;20304;-70
2023/02/27 11:26:19;;;;;;;5.22;4.68;;;;;;;;;;5058617;28;20276;-70
2023/02/27 11:29:03;;;;;;;4.78;4.57;;;;;;;;;;5054745;28;20293;-70
2023/02/27 11:31:32;;;;;;;4.90;4.70;;;;;;;;;;5056359;28;20307;-68
2023/02/27 11:34:03;;;;;;;5.70;5.50;;;;;;;;;;5052792;28;20205;-70
2023/02/27 11:36:42;;;;;;;4.82;4.72;;;;;;;;;;5051954;28;20200;-69
2023/02/27 11:39:21;;;;;;;4.75;4.65;;;;;;;;;;5052404;28;20188;-68
2023/02/27 11:41:50;;;;;;;5.00;4.80;;;;;;;;;;5046845;28;20533;-68
2023/02/27 11:44:19;;;;;;;4.50;4.30;;;;;;;;;;5052777;28;20588;-72
2023/02/27 11:46:48;;;;;;;5.63;5.20;;;;;;;;;;5052031;28;20201;-68
2023/02/27 11:49:28;;;;;;;5.10;4.90;;;;;;;;;;5052593;28;20185;-69
2023/02/27 11:52:02;;;;;;;5.50;5.20;;;;;;;;;;5051783;28;20550;-69
2023/02/27 11:54:33;;;;;;;5.10;4.90;;;;;;;;;;5052503;28;20196;-69
2023/02/27 11:57:03;;;;;;;5.30;5.13;;;;;;;;;;5052045;28;20184;-69
2023/02/27 11:59:39;;;;;;;5.03;4.82;;;;;;;;;;5052248;28;20192;-69
2023/02/27 12:02:13;;;;;;;5.13;4.75;;;;;;;;;;5052123;28;20192;-71
2023/02/27 12:04:46;;;;;;;5.32;5.03;;;;;;;;;;5051810;28;20531;-71
2023/02/27 12:07:17;;;;;;;6.38;5.00;;;;;;;;;;5054966;28;20578;-70
2023/02/27 12:09:47;;;;;;;5.32;4.90;;;;;;;;;;5049853;28;20340;-68
2023/02/27 12:12:19;;;;;;;5.63;5.13;;;;;;;;;;5053266;28;20667;-70
2023/02/27 12:14:50;;;;;;;5.18;4.95;;;;;;;;;;5053081;28;20189;-68
2023/02/27 12:17:23;;;;;;;5.03;4.80;;;;;;;;;;5052510;28;20185;-68
2023/02/27 12:19:59;;;;;;;5.15;5.03;;;;;;;;;;5053903;28;20193;-68
2023/02/27 12:22:29;;;;;;;5.60;4.93;;;;;;;;;;5057293;28;20206;-68
2023/02/27 12:25:01;;;;;;;5.30;5.10;;;;;;;;;;5055293;28;20585;-69
2023/02/27 12:27:33;;;;;;;5.25;5.05;;;;;;;;;;5057639;28;20195;-68
2023/02/27 12:30:06;;;;;;;5.45;5.10;;;;;;;;;;5058118;28;20228;-70
2023/02/27 12:32:36;;;;;;;5.32;5.10;;;;;;;;;;5058281;28;20222;-68
2023/02/27 12:35:11;;;;;;;5.15;4.90;;;;;;;;;;5057482;28;20200;-68
2023/02/27 12:37:39;;;;;;;6.28;5.78;;;;;;;;;;5060214;28;20188;-68
2023/02/27 12:40:09;;;;;;;6.07;5.68;;;;;;;;;;5061303;28;20230;-69
2023/02/27 12:42:44;;;;;;;5.43;4.95;;;;;;;;;;5061956;28;20275;-68
2023/02/27 12:45:20;;;;;;;5.45;5.30;;;;;;;;;;5057754;28;20212;-69
2023/02/27 12:47:54;;;;;;;6.18;5.88;;;;;;;;;;5061268;28;20200;-67
2023/02/27 12:50:24;;;;;;;5.68;5.38;;;;;;;;;;5059503;28;20193;-67
2023/02/27 12:52:59;;;;;;;5.95;5.65;;;;;;;;;;5058562;28;20683;-68
2023/02/27 12:55:28;;;;;;;5.65;5.45;;;;;;;;;;5056128;28;20180;-68
2023/02/27 12:58:06;;;;;;;6.70;6.13;;;;;;;;;;5041612;28;20200;-69
2023/02/27 13:00:40;;;;;;;5.90;5.60;;;;;;;;;;5059304;28;20188;-68
2023/02/27 13:03:12;;;;;;;7.00;6.35;;;;;;;;;;5056916;28;20245;-68
2023/02/27 13:05:47;;;;;;;6.07;5.70;;;;;;;;;;5039305;28;20771;-68
2023/02/27 13:08:21;;;;;;;5.70;5.38;;;;;;;;;;5057680;28;20247;-69
2023/02/27 13:10:52;;;;;;;6.13;5.82;;;;;;;;;;5058528;28;20259;-69
2023/02/27 13:13:23;;;;;;;5.85;5.65;;;;;;;;;;5056584;28;20230;-67
2023/02/27 13:15:54;;;;;;;5.95;5.60;;;;;;;;;;5058682;28;20260;-68
2023/02/27 13:18:31;;;;;;;7.57;7.07;;;;;;;;;;5058084;28;20252;-68
2023/02/27 13:21:05;;;;;;;7.97;7.45;;;;;;;;;;5057170;28;20601;-68
2023/02/27 13:23:37;;;;;;;6.78;6.38;;;;;;;;;;5058915;28;20286;-68
2023/02/27 13:26:08;;;;;;;6.20;5.90;;;;;;;;;;5058988;28;20209;-68
2023/02/27 13:28:36;;;;;;;6.30;6.00;;;;;;;;;;5050242;28;20279;-68
2023/02/27 13:31:07;;;;;;;5.70;5.50;;;;;;;;;;5054408;28;20232;-68
2023/02/27 13:33:38;;;;;;;6.10;5.90;;;;;;;;;;5054054;28;20204;-68
2023/02/27 13:36:12;;;;;;;5.55;5.45;;;;;;;;;;5054163;28;20552;-67
2023/02/27 13:38:42;;;;;;;5.85;5.53;;;;;;;;;;5038509;28;20204;-68
2023/02/27 13:41:33;;;;;;;6.45;5.97;;;;;;;;;;5051292;28;20201;-65
2023/02/27 13:44:21;;;;;;;4.70;4.30;;;;;;;;;;5051975;28;20721;-65
2023/02/27 13:46:49;;;;;;;5.35;5.20;;;;;;;;;;5047780;28;20216;-66
2023/02/27 13:49:25;;;;;;;6.13;5.82;;;;;;;;;;5053249;28;20222;-67
2023/02/27 13:51:58;;;;;;;6.22;5.93;;;;;;;;;;5053136;28;20709;-67
2023/02/27 13:54:35;;;;;;;5.85;5.65;;;;;;;;;;5053604;28;20189;-67
2023/02/27 13:57:17;;;;;;;6.20;5.90;;;;;;;;;;5052669;28;20192;-65
2023/02/27 13:59:52;;;;;;;5.57;5.38;;;;;;;;;;5049241;28;20197;-64
2023/02/27 14:02:30;;;;;;;5.90;5.57;;;;;;;;;;5049841;28;20192;-64
2023/02/27 14:04:59;;;;;;;5.50;5.20;;;;;;;;;;5050925;28;20266;-64
2023/02/27 14:07:29;;;;;;;6.43;6.15;;;;;;;;;;5050667;28;20227;-65
2023/02/27 14:10:01;;;;;;;6.05;5.75;;;;;;;;;;5052881;28;20189;-64
2023/02/27 14:12:31;;;;;;;6.15;5.85;;;;;;;;;;5050597;28;20660;-67
2023/02/27 14:15:00;;;;;;;6.20;5.93;;;;;;;;;;5050368;28;20219;-65
2023/02/27 14:17:43;;;;;;;6.28;6.03;;;;;;;;;;5052492;28;20197;-66
2023/02/27 14:20:13;;;;;;;6.10;5.82;;;;;;;;;;5052147;28;20192;-67
2023/02/27 14:23:09;;;;;;;6.70;5.50;;;;;;;;;;5053676;28;20224;-67
2023/02/27 14:25:39;;;;;;;5.57;5.33;;;;;;;;;;5052437;28;20790;-67
2023/02/27 14:28:14;;;;;;;5.88;5.63;;;;;;;;;;5053677;28;20615;-68
2023/02/27 14:30:45;;;;;;;5.75;5.55;;;;;;;;;;5052464;28;20228;-68
2023/02/27 14:33:20;;;;;;;6.28;6.07;;;;;;;;;;5052762;28;20192;-68
2023/02/27 14:35:53;;;;;;;6.25;5.95;;;;;;;;;;5053313;28;20200;-68
2023/02/27 14:38:22;;;;;;;6.20;6.00;;;;;;;;;;5051772;28;20197;-68
2023/02/27 14:40:57;;;;;;;6.30;6.00;;;;;;;;;;5052553;28;20204;-68
2023/02/27 14:43:31;;;;;;;6.25;5.85;;;;;;;;;;5052259;28;20204;-68
2023/02/27 14:46:05;;;;;;;7.50;7.10;;;;;;;;;;5053285;28;20239;-66
2023/02/27 14:48:36;;;;;;;6.53;6.32;;;;;;;;;;5051537;28;20192;-66
2023/02/27 14:51:05;;;;;;;6.60;6.20;;;;;;;;;;5052788;28;20582;-65
2023/02/27 14:53:33;;;;;;;6.97;6.70;;;;;;;;;;5052473;28;20207;-68
2023/02/27 14:56:03;;;;;;;6.47;6.22;;;;;;;;;;5051242;28;20201;-69
2023/02/27 14:58:31;;;;;;;6.70;6.50;;;;;;;;;;5052658;28;20204;-69
2023/02/27 15:01:05;;;;;;;7.07;6.35;;;;;;;;;;5051509;28;20200;-67
2023/02/27 15:03:36;;;;;;;6.55;6.32;;;;;;;;;;5051362;28;20245;-69
2023/02/27 15:06:05;;;;;;;7.18;6.68;;;;;;;;;;5052042;28;20231;-68
2023/02/27 15:08:37;;;;;;;6.30;6.00;;;;;;;;;;5051922;28;20207;-68
2023/02/27 15:11:07;;;;;;;6.13;5.82;;;;;;;;;;5050753;28;20204;-68